createdAt,value
2019-01-20T00:02:24.444Z,-3.10
2019-01-20T00:04:51.017Z,-3.10
2019-01-20T00:07:17.319Z,-3.10
2019-01-20T00:09:43.898Z,-3.10
2019-01-20T00:12:10.340Z,-3.10
2019-01-20T00:14:36.914Z,-3.20
2019-01-20T00:17:03.388Z,-3.20
2019-01-20T00:19:29.926Z,-3.20
2019-01-20T00:21:56.288Z,-3.20
2019-01-20T00:24:22.602Z,-3.20
2019-01-20T00:26:48.976Z,-3.20
2019-01-20T00:29:15.562Z,-3.20
2019-01-20T00:31:42.177Z,-3.30
2019-01-20T00:34:08.513Z,-3.30
2019-01-20T00:36:34.839Z,-3.20
2019-01-20T00:39:01.272Z,-3.20
2019-01-20T00:41:29.507Z,-3.30
2019-01-20T00:43:56.069Z,-3.30
2019-01-20T00:46:22.423Z,-3.30
2019-01-20T00:48:49.008Z,-3.40
2019-01-20T00:51:15.910Z,-3.40
2019-01-20T00:53:42.235Z,-3.30
2019-01-20T00:56:08.778Z,-3.40
2019-01-20T00:58:35.384Z,-3.40
2019-01-20T01:01:01.727Z,-3.40
2019-01-20T01:03:28.071Z,-3.40
2019-01-20T01:05:54.650Z,-3.40
2019-01-20T01:08:21.332Z,-3.40
2019-01-20T01:10:47.632Z,-3.50
2019-01-20T01:13:16.374Z,-3.40
2019-01-20T01:15:42.706Z,-3.40
2019-01-20T01:18:09.285Z,-3.30
2019-01-20T01:20:35.983Z,-3.40
2019-01-20T01:23:02.551Z,-3.40
2019-01-20T01:25:30.291Z,-3.40
2019-01-20T01:27:56.639Z,-3.40
2019-01-20T01:30:23.363Z,-3.40
2019-01-20T01:32:49.992Z,-3.50
2019-01-20T01:35:16.399Z,-3.50
2019-01-20T01:37:42.766Z,-3.50
2019-01-20T01:40:14.930Z,-3.60
2019-01-20T01:42:41.584Z,-3.60
2019-01-20T01:45:12.602Z,-3.60
2019-01-20T01:47:39.163Z,-3.60
2019-01-20T01:50:07.644Z,-3.60
2019-01-20T01:52:33.980Z,-3.70
2019-01-20T01:55:00.328Z,-3.80
2019-01-20T01:57:26.661Z,-3.80
2019-01-20T01:59:52.979Z,-3.70
2019-01-20T02:02:19.318Z,-3.70
2019-01-20T02:04:46.097Z,-3.80
2019-01-20T02:07:12.407Z,-3.70
2019-01-20T02:09:38.994Z,-3.80
2019-01-20T02:12:05.588Z,-3.80
2019-01-20T02:14:31.891Z,-3.70
2019-01-20T02:16:58.474Z,-3.70
2019-01-20T02:19:24.786Z,-3.70
2019-01-20T02:21:51.418Z,-3.70
2019-01-20T02:24:17.849Z,-3.70
2019-01-20T02:26:44.758Z,-3.60
2019-01-20T02:29:11.088Z,-3.60
2019-01-20T02:31:37.702Z,-3.60
2019-01-20T02:34:04.015Z,-3.60
2019-01-20T02:36:30.348Z,-3.60
2019-01-20T02:38:56.898Z,-3.80
2019-01-20T02:41:23.230Z,-3.80
2019-01-20T02:43:49.804Z,-3.90
2019-01-20T02:46:16.349Z,-3.90
2019-01-20T02:48:42.973Z,-3.90
2019-01-20T02:51:09.248Z,-4.00
2019-01-20T02:53:35.874Z,-3.90
2019-01-20T02:56:02.385Z,-3.90
2019-01-20T02:58:29.112Z,-3.90
2019-01-20T03:00:55.456Z,-3.90
2019-01-20T03:03:22.076Z,-3.90
2019-01-20T03:05:49.115Z,-3.90
2019-01-20T03:08:15.735Z,-4.00
2019-01-20T03:10:42.335Z,-4.00
2019-01-20T03:13:08.908Z,-4.00
2019-01-20T03:15:35.249Z,-4.10
2019-01-20T03:18:01.878Z,-4.10
2019-01-20T03:20:28.521Z,-4.20
2019-01-20T03:22:54.837Z,-4.20
2019-01-20T03:25:21.280Z,-4.20
2019-01-20T03:27:47.593Z,-4.20
2019-01-20T03:30:18.582Z,-4.20
2019-01-20T03:32:44.915Z,-4.10
2019-01-20T03:35:13.457Z,-4.20
2019-01-20T03:37:40.047Z,-4.20
2019-01-20T03:40:12.109Z,-4.10
2019-01-20T03:42:39.833Z,-4.20
2019-01-20T03:45:10.960Z,-4.20
2019-01-20T03:47:37.342Z,-4.30
2019-01-20T03:50:07.177Z,-4.30
2019-01-20T03:52:33.729Z,-4.20
2019-01-20T03:55:00.276Z,-4.10
2019-01-20T03:57:27.586Z,-4.20
2019-01-20T03:59:54.175Z,-4.20
2019-01-20T04:02:21.987Z,-4.20
2019-01-20T04:04:48.319Z,-4.20
2019-01-20T04:07:14.648Z,-4.30
2019-01-20T04:09:42.051Z,-4.20
2019-01-20T04:12:08.631Z,-4.30
2019-01-20T04:14:35.280Z,-4.20
2019-01-20T04:17:01.835Z,-4.30
2019-01-20T04:19:28.216Z,-4.30
2019-01-20T04:21:54.775Z,-4.30
2019-01-20T04:24:21.379Z,-4.30
2019-01-20T04:26:47.751Z,-4.30
2019-01-20T04:29:15.206Z,-4.30
2019-01-20T04:31:41.534Z,-4.20
2019-01-20T04:34:07.859Z,-4.20
2019-01-20T04:36:34.480Z,-4.20
2019-01-20T04:39:00.781Z,-4.30
2019-01-20T04:41:27.389Z,-4.30
2019-01-20T04:43:54.018Z,-4.20
2019-01-20T04:46:21.359Z,-4.30
2019-01-20T04:48:47.996Z,-4.30
2019-01-20T04:51:14.302Z,-4.20
2019-01-20T04:53:51.241Z,-4.20
2019-01-20T04:56:18.059Z,-4.20
2019-01-20T04:58:44.406Z,-4.20
2019-01-20T05:01:10.740Z,-4.30
2019-01-20T05:03:37.051Z,-4.20
2019-01-20T05:06:03.388Z,-4.20
2019-01-20T05:08:29.678Z,-4.20
2019-01-20T05:10:56.314Z,-4.30
2019-01-20T05:13:22.863Z,-4.30
2019-01-20T05:15:49.222Z,-4.30
2019-01-20T05:18:15.536Z,-4.40
2019-01-20T05:20:41.893Z,-4.30
2019-01-20T05:23:08.450Z,-4.50
2019-01-20T05:25:35.043Z,-4.50
2019-01-20T05:28:01.512Z,-4.50
2019-01-20T05:30:27.831Z,-4.60
2019-01-20T05:32:54.173Z,-4.50
2019-01-20T05:35:20.503Z,-4.50
2019-01-20T05:37:46.837Z,-4.50
2019-01-20T05:40:18.474Z,-4.60
2019-01-20T05:42:46.576Z,-4.60
2019-01-20T05:45:19.018Z,-4.70
2019-01-20T05:47:45.430Z,-4.90
2019-01-20T05:50:13.835Z,-5.10
2019-01-20T05:52:40.256Z,-4.90
2019-01-20T05:55:12.146Z,-5.00
2019-01-20T05:57:38.753Z,-5.00
2019-01-20T06:00:16.280Z,-4.90
2019-01-20T06:02:42.601Z,-5.10
2019-01-20T06:05:09.422Z,-5.10
2019-01-20T06:07:36.531Z,-5.10
2019-01-20T06:10:08.145Z,-5.10
2019-01-20T06:12:34.470Z,-5.00
2019-01-20T06:15:00.864Z,-5.10
2019-01-20T06:17:28.800Z,-5.20
2019-01-20T06:19:55.127Z,-5.20
2019-01-20T06:22:21.492Z,-5.20
2019-01-20T06:24:47.815Z,-5.20
2019-01-20T06:27:14.560Z,-5.10
2019-01-20T06:29:40.870Z,-5.10
2019-01-20T06:32:07.217Z,-5.20
2019-01-20T06:34:33.511Z,-5.20
2019-01-20T06:36:59.857Z,-5.20
2019-01-20T06:39:26.697Z,-5.30
2019-01-20T06:41:53.053Z,-5.30
2019-01-20T06:44:19.656Z,-5.20
2019-01-20T06:46:46.000Z,-5.30
2019-01-20T06:49:12.585Z,-5.30
2019-01-20T06:51:39.159Z,-5.20
2019-01-20T06:54:05.487Z,-5.20
2019-01-20T06:56:31.838Z,-5.20
2019-01-20T06:58:58.170Z,-5.20
2019-01-20T07:01:24.528Z,-5.20
2019-01-20T07:03:51.239Z,-5.30
2019-01-20T07:06:17.837Z,-5.30
2019-01-20T07:08:44.166Z,-5.40
2019-01-20T07:11:10.786Z,-5.30
2019-01-20T07:13:37.449Z,-5.30
2019-01-20T07:16:04.041Z,-5.30
2019-01-20T07:18:30.393Z,-5.40
2019-01-20T07:20:56.949Z,-5.40
2019-01-20T07:23:23.287Z,-5.50
2019-01-20T07:25:49.618Z,-5.40
2019-01-20T07:28:16.218Z,-5.30
2019-01-20T07:30:42.792Z,-5.30
2019-01-20T07:33:09.539Z,-5.10
2019-01-20T07:35:36.143Z,-4.90
2019-01-20T07:38:02.763Z,-5.00
2019-01-20T07:40:29.362Z,-4.80
2019-01-20T07:42:55.960Z,-4.80
2019-01-20T07:45:22.285Z,-4.70
2019-01-20T07:47:48.739Z,-4.70
2019-01-20T07:50:20.412Z,-4.60
2019-01-20T07:52:48.947Z,-4.40
2019-01-20T07:55:15.270Z,-4.40
2019-01-20T07:57:41.838Z,-4.40
2019-01-20T08:00:15.148Z,-4.30
2019-01-20T08:02:41.495Z,-4.20
2019-01-20T08:05:08.591Z,-4.10
2019-01-20T08:07:34.930Z,-4.10
2019-01-20T08:10:03.170Z,-4.10
2019-01-20T08:12:29.493Z,-4.00
2019-01-20T08:14:56.366Z,-4.00
2019-01-20T08:17:22.992Z,-4.00
2019-01-20T08:19:49.287Z,-4.00
2019-01-20T08:22:15.877Z,-3.70
2019-01-20T08:24:42.257Z,-3.60
2019-01-20T08:27:08.619Z,-3.60
2019-01-20T08:29:35.186Z,-3.50
2019-01-20T08:32:01.567Z,-3.50
2019-01-20T08:34:27.862Z,-3.70
2019-01-20T08:36:54.295Z,-3.70
2019-01-20T08:39:20.918Z,-3.80
2019-01-20T08:41:47.268Z,-3.70
2019-01-20T08:44:13.708Z,-3.60
2019-01-20T08:46:46.035Z,-3.40
2019-01-20T08:49:12.447Z,-3.30
2019-01-20T08:51:38.895Z,-3.10
2019-01-20T08:54:05.501Z,-3.20
2019-01-20T08:56:32.091Z,-3.10
2019-01-20T08:58:58.419Z,-2.80
2019-01-20T09:01:24.990Z,-2.70
2019-01-20T09:03:51.595Z,-2.50
2019-01-20T09:06:18.201Z,-2.40
2019-01-20T09:08:44.536Z,-2.30
2019-01-20T09:11:12.150Z,-2.20
2019-01-20T09:13:40.263Z,-2.20
2019-01-20T09:16:06.916Z,-2.30
2019-01-20T09:18:33.632Z,-2.20
2019-01-20T09:20:59.981Z,-2.20
2019-01-20T09:23:26.587Z,-2.10
2019-01-20T09:25:52.926Z,-2.10
2019-01-20T09:28:19.273Z,-1.90
2019-01-20T09:30:45.866Z,-1.80
2019-01-20T09:33:12.214Z,-1.60
2019-01-20T09:35:38.809Z,-1.70
2019-01-20T09:38:05.408Z,-1.70
2019-01-20T09:40:31.778Z,-1.50
2019-01-20T09:42:58.378Z,-1.40
2019-01-20T09:45:31.073Z,-1.40
2019-01-20T09:47:58.110Z,-1.50
2019-01-20T09:50:26.415Z,-1.40
2019-01-20T09:52:53.826Z,-1.30
2019-01-20T09:55:20.620Z,-1.00
2019-01-20T09:57:46.925Z,-0.90
2019-01-20T10:00:27.680Z,-1.10
2019-01-20T10:02:54.552Z,-0.90
2019-01-20T10:05:21.181Z,-0.60
2019-01-20T10:07:48.632Z,-0.30
2019-01-20T10:10:16.886Z,-0.60
2019-01-20T10:12:43.500Z,-0.80
2019-01-20T10:15:13.683Z,-0.90
2019-01-20T10:17:40.002Z,-0.70
2019-01-20T10:20:20.317Z,-0.60
2019-01-20T10:22:46.945Z,-0.40
2019-01-20T10:25:15.352Z,-0.20
2019-01-20T10:27:41.957Z,-0.10
2019-01-20T10:30:13.978Z,-0.30
2019-01-20T10:32:40.441Z,-0.20
2019-01-20T10:35:07.693Z,-0.20
2019-01-20T10:37:35.336Z,0.00
2019-01-20T10:40:01.731Z,0.30
2019-01-20T10:42:28.299Z,0.10
2019-01-20T10:44:54.661Z,0.10
2019-01-20T10:47:21.237Z,0.30
2019-01-20T10:49:47.882Z,0.30
2019-01-20T10:52:14.682Z,0.60
2019-01-20T10:54:41.057Z,0.60
2019-01-20T10:57:07.454Z,0.70
2019-01-20T10:59:33.892Z,0.70
2019-01-20T11:02:00.560Z,0.80
2019-01-20T11:04:27.155Z,0.70
2019-01-20T11:06:53.767Z,0.80
2019-01-20T11:09:20.118Z,0.80
2019-01-20T11:11:46.702Z,0.60
2019-01-20T11:14:13.525Z,0.70
2019-01-20T11:16:39.840Z,1.10
2019-01-20T11:19:06.451Z,1.60
2019-01-20T11:21:33.062Z,2.50
2019-01-20T11:23:59.487Z,3.10
2019-01-20T11:26:26.380Z,3.70
2019-01-20T11:28:53.312Z,4.20
2019-01-20T11:31:19.714Z,4.70
2019-01-20T11:33:46.325Z,5.20
2019-01-20T11:36:12.649Z,5.70
2019-01-20T11:38:39.106Z,6.50
2019-01-20T11:41:05.663Z,7.10
2019-01-20T11:43:32.022Z,7.70
2019-01-20T11:45:58.344Z,7.90
2019-01-20T11:48:24.799Z,8.50
2019-01-20T11:50:51.114Z,8.90
2019-01-20T11:53:17.484Z,9.50
2019-01-20T11:55:43.830Z,10.00
2019-01-20T11:58:10.475Z,10.40
2019-01-20T12:00:37.195Z,10.70
2019-01-20T12:03:06.612Z,11.50
2019-01-20T12:05:33.771Z,11.20
2019-01-20T12:08:00.371Z,11.10
2019-01-20T12:10:27.144Z,10.40
2019-01-20T12:12:55.612Z,11.30
2019-01-20T12:15:21.949Z,12.30
2019-01-20T12:17:48.514Z,13.00
2019-01-20T12:20:15.778Z,13.30
2019-01-20T12:22:42.505Z,13.40
2019-01-20T12:25:19.306Z,13.70
2019-01-20T12:27:45.916Z,13.60
2019-01-20T12:30:22.225Z,12.50
2019-01-20T12:32:48.849Z,12.80
2019-01-20T12:35:15.168Z,13.50
2019-01-20T12:37:41.790Z,13.50
2019-01-20T12:40:18.672Z,13.80
2019-01-20T12:42:45.019Z,13.20
2019-01-20T12:45:11.958Z,11.70
2019-01-20T12:47:38.629Z,11.40
2019-01-20T12:50:10.456Z,12.70
2019-01-20T12:52:36.773Z,12.90
2019-01-20T12:55:05.386Z,13.40
2019-01-20T12:57:31.983Z,14.40
2019-01-20T12:59:58.344Z,14.70
2019-01-20T13:02:24.666Z,13.30
2019-01-20T13:04:51.263Z,12.70
2019-01-20T13:07:17.849Z,13.80
2019-01-20T13:09:44.148Z,14.10
2019-01-20T13:12:10.736Z,14.10
2019-01-20T13:14:39.058Z,14.00
2019-01-20T13:17:08.122Z,14.80
2019-01-20T13:19:34.782Z,15.50
2019-01-20T13:22:01.161Z,15.90
2019-01-20T13:24:27.756Z,16.40
2019-01-20T13:26:54.391Z,15.50
2019-01-20T13:29:20.964Z,12.70
2019-01-20T13:31:47.339Z,13.80
2019-01-20T13:34:13.897Z,13.90
2019-01-20T13:36:40.223Z,13.50
2019-01-20T13:39:12.015Z,14.30
2019-01-20T13:41:38.622Z,14.10
2019-01-20T13:44:05.280Z,14.00
2019-01-20T13:46:32.407Z,14.50
2019-01-20T13:48:59.240Z,14.70
2019-01-20T13:51:25.880Z,14.50
2019-01-20T13:53:52.313Z,14.80
2019-01-20T13:56:18.777Z,13.30
2019-01-20T13:58:45.424Z,12.50
2019-01-20T14:01:11.842Z,12.60
2019-01-20T14:03:38.235Z,12.50
2019-01-20T14:06:04.661Z,9.30
2019-01-20T14:08:31.363Z,8.40
2019-01-20T14:10:57.700Z,7.50
2019-01-20T14:13:25.319Z,6.50
2019-01-20T14:15:51.660Z,6.10
2019-01-20T14:18:18.286Z,6.40
2019-01-20T14:20:44.936Z,6.60
2019-01-20T14:23:11.499Z,5.60
2019-01-20T14:25:38.654Z,5.60
2019-01-20T14:28:05.326Z,5.20
2019-01-20T14:30:32.919Z,4.80
2019-01-20T14:32:59.298Z,4.90
2019-01-20T14:35:25.931Z,4.80
2019-01-20T14:37:52.390Z,4.40
2019-01-20T14:40:20.191Z,3.90
2019-01-20T14:42:48.020Z,3.90
2019-01-20T14:45:17.324Z,4.00
2019-01-20T14:47:43.865Z,3.90
2019-01-20T14:50:18.551Z,3.80
2019-01-20T14:52:46.759Z,3.70
2019-01-20T14:55:15.343Z,3.80
2019-01-20T14:57:41.700Z,3.70
2019-01-20T15:00:31.191Z,3.60
2019-01-20T15:02:58.266Z,3.30
2019-01-20T15:05:24.628Z,3.10
2019-01-20T15:07:51.381Z,3.00
2019-01-20T15:10:18.064Z,3.10
2019-01-20T15:12:44.680Z,3.00
2019-01-20T15:15:17.331Z,3.00
2019-01-20T15:17:44.134Z,3.00
2019-01-20T15:20:12.643Z,3.00
2019-01-20T15:22:39.242Z,2.90
2019-01-20T15:25:11.223Z,3.00
2019-01-20T15:27:38.090Z,2.80
2019-01-20T15:30:13.161Z,2.70
2019-01-20T15:32:39.875Z,2.50
2019-01-20T15:35:06.751Z,2.30
2019-01-20T15:37:33.217Z,2.20
2019-01-20T15:39:59.872Z,1.90
2019-01-20T15:42:26.223Z,1.80
2019-01-20T15:44:52.536Z,1.60
2019-01-20T15:47:18.850Z,1.60
2019-01-20T15:49:45.714Z,1.60
2019-01-20T15:52:12.309Z,1.50
2019-01-20T15:54:38.648Z,1.40
2019-01-20T15:57:05.053Z,1.30
2019-01-20T15:59:31.705Z,1.20
2019-01-20T16:01:58.132Z,1.10
2019-01-20T16:04:24.504Z,1.00
2019-01-20T16:06:50.885Z,0.90
2019-01-20T16:09:17.323Z,0.80
2019-01-20T16:11:44.133Z,0.70
2019-01-20T16:14:10.865Z,0.50
2019-01-20T16:16:38.356Z,0.40
2019-01-20T16:19:04.835Z,0.40
2019-01-20T16:21:31.506Z,0.40
2019-01-20T16:23:58.138Z,0.40
2019-01-20T16:26:24.472Z,0.30
2019-01-20T16:28:51.300Z,0.20
2019-01-20T16:31:17.939Z,0.20
2019-01-20T16:33:44.265Z,0.00
2019-01-20T16:36:10.654Z,-0.10
2019-01-20T16:38:37.072Z,-0.10
2019-01-20T16:41:03.512Z,-0.10
2019-01-20T16:43:30.395Z,-0.20
2019-01-20T16:45:56.990Z,-0.20
2019-01-20T16:48:23.629Z,-0.20
2019-01-20T16:50:50.028Z,-0.20
2019-01-20T16:53:16.587Z,-0.20
2019-01-20T16:55:43.309Z,-0.20
2019-01-20T16:58:09.771Z,-0.30
2019-01-20T17:00:39.033Z,-0.40
2019-01-20T17:03:05.480Z,-0.40
2019-01-20T17:05:31.972Z,-0.40
2019-01-20T17:07:58.409Z,-0.50
2019-01-20T17:10:31.438Z,-0.50
2019-01-20T17:12:58.175Z,-0.90
2019-01-20T17:15:28.361Z,-0.80
2019-01-20T17:17:55.030Z,-0.90
2019-01-20T17:20:21.688Z,-0.90
2019-01-20T17:22:48.521Z,-1.00
2019-01-20T17:25:16.407Z,-1.10
2019-01-20T17:27:43.669Z,-1.10
2019-01-20T17:30:22.746Z,-1.00
2019-01-20T17:32:49.591Z,-1.20
2019-01-20T17:35:16.553Z,-1.30
2019-01-20T17:37:43.333Z,-1.20
2019-01-20T17:40:20.191Z,-1.10
2019-01-20T17:42:47.912Z,-1.20
2019-01-20T17:45:30.820Z,-1.30
2019-01-20T17:47:57.445Z,-1.40
2019-01-20T17:50:30.615Z,-1.50
2019-01-20T17:52:57.178Z,-1.70
2019-01-20T17:55:23.801Z,-1.90
2019-01-20T17:57:50.174Z,-1.80
2019-01-20T18:00:20.163Z,-1.80
2019-01-20T18:02:46.612Z,-1.80
2019-01-20T18:05:17.927Z,-1.80
2019-01-20T18:07:44.594Z,-1.90
2019-01-20T18:10:13.282Z,-1.80
2019-01-20T18:12:40.175Z,-1.70
2019-01-20T18:15:12.742Z,-1.70
2019-01-20T18:17:39.607Z,-1.60
2019-01-20T18:20:14.782Z,-1.60
2019-01-20T18:22:41.369Z,-1.60
2019-01-20T18:25:11.801Z,-1.70
2019-01-20T18:27:38.452Z,-1.80
2019-01-20T18:30:12.921Z,-1.80
2019-01-20T18:32:39.513Z,-1.80
2019-01-20T18:35:09.551Z,-1.80
2019-01-20T18:37:36.393Z,-1.80
2019-01-20T18:40:11.366Z,-1.90
2019-01-20T18:42:37.717Z,-1.90
2019-01-20T18:45:08.501Z,-2.00
2019-01-20T18:47:35.089Z,-2.00
2019-01-20T18:50:05.110Z,-2.00
2019-01-20T18:52:31.485Z,-2.10
2019-01-20T18:54:58.157Z,-2.10
2019-01-20T18:57:24.505Z,-2.00
2019-01-20T18:59:50.869Z,-2.10
2019-01-20T19:02:17.598Z,-2.10
2019-01-20T19:04:44.249Z,-2.20
2019-01-20T19:07:10.552Z,-2.20
2019-01-20T19:09:36.997Z,-2.30
2019-01-20T19:12:04.555Z,-2.20
2019-01-20T19:14:31.024Z,-2.30
2019-01-20T19:16:57.356Z,-2.30
2019-01-20T19:19:23.738Z,-2.40
2019-01-20T19:21:50.070Z,-2.40
2019-01-20T19:24:16.844Z,-2.30
2019-01-20T19:26:43.263Z,-2.40
2019-01-20T19:29:09.629Z,-2.50
2019-01-20T19:31:36.063Z,-2.50
2019-01-20T19:34:02.781Z,-2.50
2019-01-20T19:36:29.159Z,-2.60
2019-01-20T19:38:55.574Z,-2.60
2019-01-20T19:41:22.251Z,-2.50
2019-01-20T19:43:48.872Z,-2.40
2019-01-20T19:46:16.425Z,-2.40
2019-01-20T19:48:42.998Z,-2.50
2019-01-20T19:51:09.586Z,-2.50
2019-01-20T19:53:36.194Z,-2.40
2019-01-20T19:56:03.527Z,-2.40
2019-01-20T19:58:30.191Z,-2.40
2019-01-20T20:00:57.071Z,-2.50
2019-01-20T20:03:23.884Z,-2.50
2019-01-20T20:05:50.299Z,-2.60
2019-01-20T20:08:16.969Z,-2.50
2019-01-20T20:10:43.563Z,-2.60
2019-01-20T20:13:09.938Z,-2.60
2019-01-20T20:15:36.486Z,-2.70
2019-01-20T20:18:03.304Z,-2.70
2019-01-20T20:20:29.842Z,-2.70
2019-01-20T20:22:56.511Z,-2.60
2019-01-20T20:25:24.325Z,-2.70
2019-01-20T20:27:52.084Z,-2.70
2019-01-20T20:30:23.415Z,-2.70
2019-01-20T20:32:50.299Z,-2.80
2019-01-20T20:35:16.880Z,-2.80
2019-01-20T20:37:43.272Z,-2.80
2019-01-20T20:40:14.497Z,-2.90
2019-01-20T20:42:40.879Z,-2.80
2019-01-20T20:45:12.265Z,-2.90
2019-01-20T20:47:38.948Z,-2.90
2019-01-20T20:50:09.899Z,-2.90
2019-01-20T20:52:36.252Z,-3.00
2019-01-20T20:55:05.049Z,-2.90
2019-01-20T20:57:32.127Z,-2.90
2019-01-20T20:59:58.934Z,-2.90
2019-01-20T21:02:25.595Z,-2.90
2019-01-20T21:04:52.093Z,-2.90
2019-01-20T21:07:18.490Z,-2.90
2019-01-20T21:09:45.319Z,-3.00
2019-01-20T21:12:11.661Z,-2.90
2019-01-20T21:14:38.356Z,-3.10
2019-01-20T21:17:04.756Z,-3.10
2019-01-20T21:19:32.417Z,-3.10
2019-01-20T21:21:59.123Z,-3.10
2019-01-20T21:24:25.835Z,-3.10
2019-01-20T21:26:52.200Z,-3.10
2019-01-20T21:29:18.827Z,-3.10
2019-01-20T21:31:45.165Z,-3.10
2019-01-20T21:34:11.540Z,-3.10
2019-01-20T21:36:38.126Z,-3.20
2019-01-20T21:39:05.937Z,-3.20
2019-01-20T21:41:33.061Z,-3.20
2019-01-20T21:43:59.367Z,-3.30
2019-01-20T21:46:25.969Z,-3.30
2019-01-20T21:48:52.596Z,-3.30
2019-01-20T21:51:19.011Z,-3.30
2019-01-20T21:53:45.607Z,-3.40
2019-01-20T21:56:13.938Z,-3.40
2019-01-20T21:58:40.609Z,-3.40
2019-01-20T22:01:07.230Z,-3.50
2019-01-20T22:03:33.874Z,-3.50
2019-01-20T22:06:00.194Z,-3.50
2019-01-20T22:08:26.550Z,-3.50
2019-01-20T22:10:52.866Z,-3.50
2019-01-20T22:13:19.214Z,-3.60
2019-01-20T22:15:45.831Z,-3.60
2019-01-20T22:18:12.410Z,-3.60
2019-01-20T22:20:38.974Z,-3.70
2019-01-20T22:23:05.317Z,-3.60
2019-01-20T22:25:31.734Z,-3.60
2019-01-20T22:27:58.400Z,-3.60
2019-01-20T22:30:24.911Z,-3.70
2019-01-20T22:32:51.575Z,-3.70
2019-01-20T22:35:18.035Z,-3.70
2019-01-20T22:37:44.764Z,-3.70
2019-01-20T22:40:17.708Z,-3.60
2019-01-20T22:42:44.508Z,-3.70
2019-01-20T22:45:14.328Z,-3.70
2019-01-20T22:47:41.147Z,-3.90
2019-01-20T22:50:11.085Z,-4.00
2019-01-20T22:52:37.589Z,-4.00
2019-01-20T22:55:08.535Z,-3.90
2019-01-20T22:57:35.403Z,-3.90
2019-01-20T23:00:46.552Z,-3.90
2019-01-20T23:03:14.481Z,-4.00
2019-01-20T23:05:40.820Z,-4.00
2019-01-20T23:08:07.552Z,-4.00
2019-01-20T23:10:33.894Z,-4.10
2019-01-20T23:13:00.247Z,-4.10
2019-01-20T23:15:26.850Z,-4.10
2019-01-20T23:17:53.219Z,-4.10
2019-01-20T23:20:19.594Z,-4.10
2019-01-20T23:22:46.219Z,-4.10
2019-01-20T23:25:12.550Z,-4.20
2019-01-20T23:27:39.043Z,-4.20
2019-01-20T23:30:10.612Z,-4.20
2019-01-20T23:32:37.159Z,-4.10
2019-01-20T23:35:05.702Z,-4.20
2019-01-20T23:37:32.020Z,-4.30
2019-01-20T23:39:59.653Z,-4.30
2019-01-20T23:42:26.015Z,-4.30
2019-01-20T23:44:52.637Z,-4.20
2019-01-20T23:47:19.219Z,-4.20
2019-01-20T23:49:45.557Z,-4.20
2019-01-20T23:52:12.167Z,-4.20
2019-01-20T23:54:38.520Z,-4.20
2019-01-20T23:57:04.821Z,-4.20
2019-01-20T23:59:31.403Z,-4.20
